Time;durP1;ratioP1;P1;durP2;ratioP2;P2;SDS_P1;SDS_P2;PMS_P1;PMS_P2;Temp;Humidity;BMP_temperature;BMP_pressure;BME280_temperature;BME280_humidity;BME280_pressure;Samples;Min_cycle;Max_cycle;Signal;HPM_P1;HPM_P2
2022/10/20 00:01:04;;;;;;;4.03;2.10;;;;;;;4.53;100.00;102519.16;5039470;28;20180;-50
2022/10/20 00:03:30;;;;;;;2.53;2.08;;;;;;;4.57;100.00;102510.38;5036829;28;20231;-49
2022/10/20 00:06:06;;;;;;;3.70;1.98;;;;;;;4.64;100.00;102516.66;5036674;28;20658;-49
2022/10/20 00:08:31;;;;;;;3.20;2.15;;;;;;;4.72;100.00;102518.53;5044603;28;20274;-48
2022/10/20 00:10:57;;;;;;;2.50;1.90;;;;;;;4.81;100.00;102520.44;5034442;28;20171;-45
2022/10/20 00:13:23;;;;;;;2.55;2.00;;;;;;;4.81;100.00;102509.81;5052312;28;20607;-45
2022/10/20 00:15:54;;;;;;;2.15;1.95;;;;;;;4.83;100.00;102505.41;5052077;28;20172;-45
2022/10/20 00:18:20;;;;;;;1.92;1.63;;;;;;;4.80;100.00;102515.97;5052309;28;20194;-47
2022/10/20 00:20:47;;;;;;;4.80;2.10;;;;;;;4.92;100.00;102509.94;5052096;28;20244;-48
2022/10/20 00:23:13;;;;;;;2.75;1.67;;;;;;;4.92;100.00;102507.28;5034375;28;20277;-47
2022/10/20 00:25:38;;;;;;;2.63;1.83;;;;;;;4.84;100.00;102508.94;5051842;28;20221;-47
2022/10/20 00:28:04;;;;;;;4.00;1.60;;;;;;;5.02;100.00;102509.16;5051744;28;20587;-51
2022/10/20 00:30:30;;;;;;;1.73;1.60;;;;;;;4.98;100.00;102510.00;5051930;28;20691;-51
2022/10/20 00:32:55;;;;;;;4.75;1.90;;;;;;;4.88;100.00;102516.97;5051682;28;20237;-48
2022/10/20 00:35:21;;;;;;;2.83;1.77;;;;;;;4.77;100.00;102510.63;5051871;28;20258;-48
2022/10/20 00:37:46;;;;;;;4.80;1.50;;;;;;;4.78;100.00;102517.72;5034059;28;20198;-50
2022/10/20 00:40:12;;;;;;;1.77;1.63;;;;;;;4.78;100.00;102515.06;5051772;28;20162;-44
2022/10/20 00:42:37;;;;;;;1.63;1.52;;;;;;;4.74;100.00;102526.50;5051669;28;20167;-45
2022/10/20 00:45:12;;;;;;;1.20;1.10;;;;;;;4.69;100.00;102517.59;5051107;28;20187;-47
2022/10/20 00:47:41;;;;;;;1.70;1.60;;;;;;;4.57;100.00;102520.06;5051443;28;20169;-46
2022/10/20 00:50:14;;;;;;;4.00;1.73;;;;;;;4.47;100.00;102519.94;5051544;28;20168;-51
2022/10/20 00:52:42;;;;;;;1.60;1.35;;;;;;;4.52;100.00;102509.41;5051347;28;20164;-46
2022/10/20 00:55:08;;;;;;;1.92;1.40;;;;;;;4.29;100.00;102519.69;5051687;28;20160;-47
2022/10/20 00:57:35;;;;;;;1.33;1.23;;;;;;;4.32;100.00;102514.44;5051228;28;20289;-48
2022/10/20 01:00:01;;;;;;;1.73;1.40;;;;;;;4.32;100.00;102522.38;5033645;28;20613;-46
2022/10/20 01:02:27;;;;;;;1.80;1.48;;;;;;;4.26;100.00;102511.66;5033480;28;20195;-47
2022/10/20 01:04:52;;;;;;;1.20;1.20;;;;;;;4.33;100.00;102500.31;5050758;28;20208;-48
2022/10/20 01:07:18;;;;;;;1.50;1.40;;;;;;;4.34;100.00;102495.00;5051087;28;20198;-48
2022/10/20 01:09:43;;;;;;;4.15;2.15;;;;;;;4.32;100.00;102495.84;5050584;28;20164;-46
2022/10/20 01:12:18;;;;;;;2.83;1.85;;;;;;;4.21;100.00;102487.72;5051312;28;20327;-46
2022/10/20 01:14:58;;;;;;;9.73;3.17;;;;;;;4.26;100.00;102485.13;5050820;28;20610;-45
2022/10/20 01:17:42;;;;;;;7.13;4.63;;;;;;;4.36;100.00;102483.53;5050566;28;20557;-51
2022/10/20 01:20:22;;;;;;;3.17;2.83;;;;;;;4.20;100.00;102475.34;5050926;28;20164;-49
2022/10/20 01:22:56;;;;;;;7.90;3.05;;;;;;;4.05;100.00;102481.31;5050094;28;20168;-46
2022/10/20 01:25:36;;;;;;;3.20;2.90;;;;;;;4.12;100.00;102480.53;5050763;28;20170;-47
2022/10/20 01:28:36;;;;;;;7.97;5.68;;;;;;;4.26;100.00;102472.78;5050600;28;20182;-46
2022/10/20 01:31:08;;;;;;;13.20;5.90;;;;;;;4.33;100.00;102468.47;5050741;28;20258;-46
2022/10/20 01:34:03;;;;;;;9.27;6.75;;;;;;;4.39;100.00;102457.03;5050270;28;20557;-46
2022/10/20 01:36:38;;;;;;;9.73;7.22;;;;;;;4.40;100.00;102459.72;4996033;28;20263;-50
2022/10/20 01:39:09;;;;;;;11.43;8.10;;;;;;;4.47;100.00;102458.91;5050524;28;20618;-45
2022/10/20 01:41:37;;;;;;;10.57;7.95;;;;;;;4.57;100.00;102441.34;5050113;28;20160;-50
2022/10/20 01:44:07;;;;;;;11.98;8.85;;;;;;;4.59;100.00;102444.00;5050218;28;20214;-50
2022/10/20 01:46:35;;;;;;;14.25;8.68;;;;;;;4.62;100.00;102441.41;5050026;28;20224;-49
2022/10/20 01:49:03;;;;;;;12.60;8.93;;;;;;;4.64;100.00;102429.94;5050368;28;20174;-47
2022/10/20 01:51:28;;;;;;;10.82;8.70;;;;;;;4.67;100.00;102432.59;5050181;28;20536;-44
2022/10/20 01:53:54;;;;;;;13.85;8.93;;;;;;;4.63;100.00;102413.97;5050083;28;20191;-45
2022/10/20 01:56:28;;;;;;;8.52;7.63;;;;;;;4.65;100.00;102412.22;5049377;28;20170;-50
2022/10/20 01:59:17;;;;;;;10.05;7.93;;;;;;;4.57;100.00;102412.16;5049126;28;20194;-45
2022/10/20 02:01:51;;;;;;;10.02;7.80;;;;;;;4.66;100.00;102411.38;5058566;28;20540;-46
2022/10/20 02:04:26;;;;;;;12.63;8.40;;;;;;;4.79;100.00;102413.28;5069553;28;20225;-46
2022/10/20 02:07:01;;;;;;;11.00;8.07;;;;;;;4.73;100.00;102421.19;5070072;28;20165;-50
2022/10/20 02:09:37;;;;;;;8.93;7.30;;;;;;;4.68;100.00;102418.47;5069984;28;20179;-46
2022/10/20 02:12:12;;;;;;;10.00;6.72;;;;;;;4.67;100.00;102406.06;5069620;28;20174;-46
2022/10/20 02:14:37;;;;;;;8.43;6.68;;;;;;;4.69;100.00;102419.38;5069785;28;20202;-46
2022/10/20 02:17:07;;;;;;;10.18;7.47;;;;;;;4.67;100.00;102408.72;5066775;28;20207;-50
2022/10/20 02:19:36;;;;;;;10.45;6.95;;;;;;;4.60;100.00;102411.31;5029959;28;20647;-45
2022/10/20 02:22:04;;;;;;;9.80;7.18;;;;;;;4.54;100.00;102399.72;5029983;28;20172;-45
2022/10/20 02:24:35;;;;;;;7.70;6.78;;;;;;;4.44;100.00;102397.84;5030215;28;20198;-47
2022/10/20 02:27:07;;;;;;;7.93;6.68;;;;;;;4.49;100.00;102396.13;5030081;28;20164;-48
2022/10/20 02:29:38;;;;;;;9.15;6.13;;;;;;;4.58;100.00;102391.81;5029617;28;20255;-47
2022/10/20 02:32:05;;;;;;;7.20;5.82;;;;;;;4.49;100.00;102389.94;5029830;28;20218;-46
2022/10/20 02:34:30;;;;;;;7.00;6.28;;;;;;;4.38;100.00;102380.97;5011761;28;20199;-47
2022/10/20 02:36:57;;;;;;;11.15;6.25;;;;;;;4.47;100.00;102384.59;5012094;28;20196;-47
2022/10/20 02:39:24;;;;;;;7.80;6.07;;;;;;;4.27;100.00;102394.09;5029904;28;20631;-44
2022/10/20 02:41:49;;;;;;;6.95;5.82;;;;;;;4.37;100.00;102380.03;5029739;28;20200;-49
2022/10/20 02:44:14;;;;;;;7.47;5.68;;;;;;;4.49;100.00;102377.56;5029777;28;20203;-44
2022/10/20 02:46:40;;;;;;;6.60;5.68;;;;;;;4.41;100.00;102373.91;5029580;28;20524;-46
2022/10/20 02:49:06;;;;;;;7.65;5.53;;;;;;;4.41;100.00;102379.22;5029619;28;20289;-46
2022/10/20 02:51:31;;;;;;;7.32;5.05;;;;;;;4.52;100.00;102364.28;5029839;28;20160;-46
2022/10/20 02:53:56;;;;;;;6.47;5.70;;;;;;;4.52;100.00;102364.28;5029504;28;20250;-46
2022/10/20 02:56:22;;;;;;;7.25;5.32;;;;;;;4.50;100.00;102366.06;5029663;28;20172;-46
2022/10/20 02:58:48;;;;;;;6.00;5.25;;;;;;;4.47;100.00;102370.44;5029544;28;20218;-50
2022/10/20 03:01:14;;;;;;;6.55;5.05;;;;;;;4.52;100.00;102359.00;5012183;28;20178;-45
2022/10/20 03:03:39;;;;;;;5.95;4.43;;;;;;;4.57;100.00;102358.16;5029441;28;20208;-45
2022/10/20 03:06:13;;;;;;;7.45;5.35;;;;;;;4.37;100.00;102348.19;5029855;28;20271;-46
2022/10/20 03:08:39;;;;;;;5.75;4.70;;;;;;;4.32;100.00;102347.25;5031648;28;20259;-47
2022/10/20 03:11:05;;;;;;;5.90;4.60;;;;;;;4.24;100.00;102336.56;5038190;28;20213;-49
2022/10/20 03:13:31;;;;;;;6.03;4.68;;;;;;;4.16;100.00;102345.31;5053522;28;20701;-46
2022/10/20 03:15:56;;;;;;;4.03;3.70;;;;;;;4.20;100.00;102349.75;5053148;28;20204;-49
2022/10/20 03:18:22;;;;;;;5.53;4.00;;;;;;;4.12;100.00;102334.63;5053124;28;20712;-45
2022/10/20 03:20:51;;;;;;;6.22;4.00;;;;;;;4.00;100.00;102344.19;5053227;28;20179;-44
2022/10/20 03:23:17;;;;;;;5.47;4.10;;;;;;;3.82;100.00;102334.25;5052676;28;20252;-47
2022/10/20 03:25:43;;;;;;;3.63;3.28;;;;;;;3.98;100.00;102343.28;5053227;28;20184;-48
2022/10/20 03:28:08;;;;;;;5.50;3.72;;;;;;;4.04;100.00;102343.38;5053049;28;20175;-43
2022/10/20 03:30:33;;;;;;;4.07;3.67;;;;;;;3.73;100.00;102340.31;5053223;28;20234;-45
2022/10/20 03:32:59;;;;;;;3.85;3.47;;;;;;;3.73;100.00;102335.00;5052901;28;20203;-50
2022/10/20 03:35:24;;;;;;;6.20;4.13;;;;;;;3.62;100.00;102344.56;5052652;28;20179;-45
2022/10/20 03:37:50;;;;;;;5.03;3.90;;;;;;;3.69;100.00;102325.22;5033927;28;20223;-46
2022/10/20 03:40:16;;;;;;;4.53;3.85;;;;;;;3.64;100.00;102327.81;5032590;28;20251;-46
2022/10/20 03:42:41;;;;;;;6.22;4.32;;;;;;;3.58;100.00;102330.34;5032659;28;20172;-46
2022/10/20 03:45:07;;;;;;;4.53;3.72;;;;;;;3.67;100.00;102327.88;5032742;28;20539;-47
2022/10/20 03:47:32;;;;;;;5.05;3.30;;;;;;;3.63;100.00;102326.03;5040650;28;20210;-48
2022/10/20 03:49:58;;;;;;;4.72;3.33;;;;;;;3.56;100.00;102324.16;5039870;28;20241;-44
2022/10/20 03:52:23;;;;;;;3.72;3.42;;;;;;;3.49;100.00;102322.28;5041158;28;20211;-45
2022/10/20 03:54:49;;;;;;;3.72;3.35;;;;;;;3.58;100.00;102332.13;5035039;28;20220;-46
2022/10/20 03:57:14;;;;;;;4.18;3.88;;;;;;;3.54;100.00;102331.19;5032359;28;20577;-46
2022/10/20 03:59:40;;;;;;;4.93;2.80;;;;;;;3.60;100.00;102331.28;5037365;28;20184;-44
2022/10/20 04:02:05;;;;;;;5.35;3.35;;;;;;;3.61;100.00;102317.19;5024750;28;20263;-45
2022/10/20 04:04:31;;;;;;;2.80;2.58;;;;;;;3.70;100.00;102316.41;5034847;28;20219;-46
2022/10/20 04:06:56;;;;;;;5.00;2.70;;;;;;;3.78;100.00;102316.50;5037905;28;20184;-45
2022/10/20 04:09:22;;;;;;;5.07;2.92;;;;;;;3.72;100.00;102307.59;5046106;28;20240;-46
2022/10/20 04:11:47;;;;;;;3.63;2.85;;;;;;;3.77;100.00;102305.03;5044572;28;20672;-44
2022/10/20 04:14:13;;;;;;;4.22;2.85;;;;;;;3.74;100.00;102301.41;5036261;28;20223;-46
2022/10/20 04:16:38;;;;;;;3.95;2.78;;;;;;;3.86;100.00;102305.13;5038920;28;20592;-45
2022/10/20 04:19:04;;;;;;;3.63;2.63;;;;;;;3.80;100.00;102305.03;5028991;28;20377;-46
2022/10/20 04:21:29;;;;;;;4.65;3.00;;;;;;;3.85;100.00;102299.84;5037186;28;20175;-44
2022/10/20 04:23:55;;;;;;;4.10;2.67;;;;;;;3.96;100.00;102298.22;5045501;28;20302;-44
2022/10/20 04:26:20;;;;;;;4.18;3.03;;;;;;;3.89;100.00;102301.63;5043841;28;20194;-45
2022/10/20 04:28:46;;;;;;;3.33;2.47;;;;;;;3.87;100.00;102298.97;5038353;28;20278;-45
2022/10/20 04:31:11;;;;;;;5.78;3.00;;;;;;;3.75;100.00;102296.16;5028954;28;20287;-44
2022/10/20 04:33:37;;;;;;;3.08;2.45;;;;;;;3.66;100.00;102293.38;5036253;28;20199;-45
2022/10/20 04:36:10;;;;;;;3.05;2.65;;;;;;;3.56;100.00;102297.66;5041083;28;20184;-45
2022/10/20 04:38:36;;;;;;;3.42;2.08;;;;;;;3.58;100.00;102293.25;5034762;28;20207;-44
2022/10/20 04:41:03;;;;;;;2.50;2.30;;;;;;;3.52;100.00;102277.31;5017837;28;20238;-48
2022/10/20 04:43:29;;;;;;;4.43;2.42;;;;;;;3.43;100.00;102285.09;5040582;28;20226;-45
2022/10/20 04:45:59;;;;;;;2.65;2.30;;;;;;;3.52;100.00;102272.00;5036883;28;20199;-46
2022/10/20 04:48:24;;;;;;;3.97;2.60;;;;;;;3.81;100.00;102279.44;5038885;28;20184;-46
2022/10/20 04:51:02;;;;;;;2.65;2.45;;;;;;;3.95;100.00;102279.63;5036548;28;20188;-45
2022/10/20 04:53:27;;;;;;;2.75;2.40;;;;;;;3.99;100.00;102277.00;5035490;28;20207;-45
2022/10/20 04:55:54;;;;;;;3.78;2.63;;;;;;;4.07;100.00;102270.06;5041573;28;20240;-46
2022/10/20 04:58:19;;;;;;;3.25;2.80;;;;;;;4.07;100.00;102280.66;5035894;28;20705;-46
2022/10/20 05:00:45;;;;;;;8.95;2.25;;;;;;;4.16;100.00;102273.69;5039166;28;20222;-45
2022/10/20 05:03:10;;;;;;;2.30;2.10;;;;;;;4.21;100.00;102283.47;5035413;28;20704;-45
2022/10/20 05:05:36;;;;;;;4.32;3.00;;;;;;;4.29;100.00;102275.59;5036804;28;20639;-45
2022/10/20 05:08:01;;;;;;;3.55;2.33;;;;;;;4.20;100.00;102248.94;5041181;28;20179;-47
2022/10/20 05:10:27;;;;;;;5.03;2.55;;;;;;;4.19;100.00;102256.03;5040607;28;20180;-43
2022/10/20 05:12:52;;;;;;;3.45;2.38;;;;;;;4.00;100.00;102251.38;5039016;28;20255;-45
2022/10/20 05:15:17;;;;;;;2.67;2.40;;;;;;;4.12;100.00;102252.41;5033728;28;20195;-47
2022/10/20 05:17:43;;;;;;;4.38;2.40;;;;;;;4.05;100.00;102244.41;5030284;28;20278;-50
2022/10/20 05:20:09;;;;;;;3.30;2.35;;;;;;;3.95;100.00;102243.38;5012777;28;20176;-45
2022/10/20 05:22:34;;;;;;;5.70;2.20;;;;;;;3.98;100.00;102251.38;5047887;28;20187;-46
2022/10/20 05:25:00;;;;;;;2.70;2.35;;;;;;;4.02;100.00;102249.63;5050783;28;20234;-49
2022/10/20 05:27:27;;;;;;;4.53;2.25;;;;;;;4.04;100.00;102247.91;5034369;28;20179;-46
2022/10/20 05:29:52;;;;;;;3.22;2.10;;;;;;;4.00;100.00;102247.00;5030699;28;20164;-46
2022/10/20 05:32:18;;;;;;;1.92;1.80;;;;;;;3.99;100.00;102244.31;5030634;28;20709;-48
2022/10/20 05:34:43;;;;;;;3.45;2.08;;;;;;;4.11;100.00;102242.69;5030836;28;20609;-46
2022/10/20 05:37:09;;;;;;;4.17;2.40;;;;;;;4.29;100.00;102239.34;5029926;28;20425;-46
2022/10/20 05:39:34;;;;;;;4.90;2.28;;;;;;;4.24;100.00;102240.16;5030397;28;20168;-46
2022/10/20 05:42:00;;;;;;;3.90;2.35;;;;;;;4.28;100.00;102236.66;5029955;28;20191;-47
2022/10/20 05:44:25;;;;;;;6.03;2.33;;;;;;;4.33;100.00;102232.31;5029964;28;20395;-46
2022/10/20 05:46:51;;;;;;;3.78;2.20;;;;;;;4.21;100.00;102241.03;5029803;28;20176;-49
2022/10/20 05:49:16;;;;;;;2.50;2.15;;;;;;;4.13;100.00;102234.72;5030177;28;20171;-48
2022/10/20 05:51:43;;;;;;;3.85;2.10;;;;;;;4.06;100.00;102235.53;5029786;28;20271;-45
2022/10/20 05:54:10;;;;;;;1.88;1.77;;;;;;;4.12;100.00;102239.16;5029841;28;20219;-47
2022/10/20 05:56:36;;;;;;;2.05;1.95;;;;;;;4.18;100.00;102238.34;5029614;28;20223;-46
2022/10/20 05:59:01;;;;;;;4.68;2.00;;;;;;;4.17;100.00;102231.25;5011961;28;20176;-47
2022/10/20 06:01:38;;;;;;;2.20;2.10;;;;;;;4.08;100.00;102229.38;5029982;28;20653;-50
2022/10/20 06:04:04;;;;;;;3.95;2.20;;;;;;;3.96;100.00;102221.31;5029735;28;20268;-46
2022/10/20 06:06:30;;;;;;;2.80;2.08;;;;;;;3.88;100.00;102217.66;5029901;28;20164;-48
2022/10/20 06:08:58;;;;;;;3.78;2.30;;;;;;;3.91;100.00;102202.69;5029762;28;20175;-48
2022/10/20 06:11:24;;;;;;;2.92;1.90;;;;;;;3.83;100.00;102195.53;5029739;28;20234;-50
2022/10/20 06:13:50;;;;;;;9.65;2.33;;;;;;;3.88;100.00;102194.69;5029619;28;20265;-51
2022/10/20 06:16:21;;;;;;;2.30;2.10;;;;;;;3.96;100.00;102196.53;5029368;28;20187;-49
2022/10/20 06:18:47;;;;;;;3.30;2.40;;;;;;;3.93;100.00;102197.38;5029818;28;20191;-48
2022/10/20 06:21:16;;;;;;;2.85;2.10;;;;;;;3.94;100.00;102190.34;5042255;28;20183;-48
2022/10/20 06:23:42;;;;;;;2.70;2.15;;;;;;;3.98;100.00;102201.00;5048527;28;20207;-49
2022/10/20 06:26:16;;;;;;;2.45;1.95;;;;;;;3.89;100.00;102188.53;5031069;28;20700;-50
2022/10/20 06:28:42;;;;;;;5.07;2.08;;;;;;;3.91;100.00;102181.50;5028887;28;20156;-48
2022/10/20 06:31:17;;;;;;;2.90;2.13;;;;;;;4.05;100.00;102173.66;5028393;28;20516;-50
2022/10/20 06:33:43;;;;;;;4.57;2.03;;;;;;;4.05;100.00;102178.97;5027628;28;20203;-46
2022/10/20 06:36:09;;;;;;;4.65;2.58;;;;;;;4.10;100.00;102176.38;5044395;28;20578;-46
2022/10/20 06:38:35;;;;;;;2.72;2.28;;;;;;;4.49;100.00;102173.19;5030872;28;20202;-47
2022/10/20 06:41:05;;;;;;;3.10;2.20;;;;;;;4.69;100.00;102153.88;5047552;28;20238;-47
2022/10/20 06:43:31;;;;;;;2.58;2.20;;;;;;;4.91;100.00;102163.78;5031628;28;20207;-49
2022/10/20 06:45:58;;;;;;;4.28;2.60;;;;;;;5.16;100.00;102154.19;5033425;28;20179;-45
2022/10/20 06:48:25;;;;;;;9.43;2.63;;;;;;;5.26;100.00;102157.78;5033882;28;20172;-46
2022/10/20 06:50:55;;;;;;;3.33;2.08;;;;;;;5.58;100.00;102154.38;5033786;28;20173;-46
2022/10/20 06:53:21;;;;;;;2.42;2.20;;;;;;;5.75;100.00;102152.66;5033333;28;20203;-47
2022/10/20 06:55:55;;;;;;;3.28;2.28;;;;;;;6.00;100.00;102147.44;5015699;28;20190;-45
2022/10/20 06:58:21;;;;;;;4.43;2.00;;;;;;;6.22;100.00;102155.47;5015521;28;20210;-44
2022/10/20 07:00:46;;;;;;;3.22;2.03;;;;;;;6.43;100.00;102150.16;5050201;28;20446;-45
2022/10/20 07:03:11;;;;;;;7.60;1.98;;;;;;;6.57;100.00;102150.13;5052892;28;20207;-48
2022/10/20 07:05:37;;;;;;;2.88;2.00;;;;;;;6.64;100.00;102156.34;5042084;28;20556;-50
2022/10/20 07:08:02;;;;;;;3.13;1.95;;;;;;;6.77;100.00;102147.47;5037998;28;20187;-51
2022/10/20 07:10:28;;;;;;;4.70;1.70;;;;;;;6.83;100.00;102152.78;5022281;28;20188;-50
2022/10/20 07:12:54;;;;;;;4.10;2.38;;;;;;;6.86;100.00;102149.22;5033827;28;20287;-51
2022/10/20 07:15:19;;;;;;;2.42;1.55;;;;;;;7.04;100.00;102151.88;5040497;28;20660;-49
2022/10/20 07:17:45;;;;;;;4.60;2.10;;;;;;;6.98;100.00;102162.53;5039044;28;20229;-52
2022/10/20 07:20:10;;;;;;;3.50;1.95;;;;;;;6.93;100.00;102149.22;5034374;28;20192;-50
2022/10/20 07:22:36;;;;;;;4.30;2.00;;;;;;;7.01;100.00;102144.75;5037169;28;20199;-49
2022/10/20 07:25:05;;;;;;;3.85;2.08;;;;;;;7.03;100.00;102134.09;5025618;28;20236;-49
2022/10/20 07:27:30;;;;;;;3.42;1.92;;;;;;;7.09;100.00;102136.75;5042462;28;20180;-50
2022/10/20 07:29:56;;;;;;;3.65;1.70;;;;;;;7.10;100.00;102143.84;5041101;28;20624;-50
2022/10/20 07:32:21;;;;;;;2.42;1.90;;;;;;;7.29;100.00;102152.66;5039822;28;20188;-50
2022/10/20 07:34:47;;;;;;;4.53;2.05;;;;;;;7.27;100.00;102143.78;5035198;28;20202;-50
2022/10/20 07:37:12;;;;;;;2.60;1.80;;;;;;;7.30;100.00;102148.22;5040930;28;20203;-50
2022/10/20 07:39:37;;;;;;;3.65;2.10;;;;;;;7.21;100.00;102154.47;5034307;28;20204;-51
2022/10/20 07:42:03;;;;;;;4.57;1.90;;;;;;;7.33;100.00;102151.78;5032707;28;20642;-50
2022/10/20 07:44:28;;;;;;;3.28;1.83;;;;;;;7.37;100.00;102150.00;5038599;28;20294;-50
2022/10/20 07:46:54;;;;;;;4.07;1.80;;;;;;;7.36;100.00;102142.88;5037208;28;20184;-50
2022/10/20 07:49:19;;;;;;;5.63;1.90;;;;;;;7.37;100.00;102140.22;5035927;28;20188;-50
2022/10/20 07:51:45;;;;;;;6.07;2.25;;;;;;;7.49;100.00;102138.38;5016306;28;20183;-49
2022/10/20 07:54:10;;;;;;;4.78;1.92;;;;;;;7.43;100.00;102134.84;5023968;28;20261;-50
2022/10/20 07:56:39;;;;;;;4.22;2.13;;;;;;;7.43;100.00;102136.59;5040517;28;20192;-50
2022/10/20 07:59:06;;;;;;;7.85;2.00;;;;;;;7.57;100.00;102132.13;5039479;28;20187;-50
2022/10/20 08:01:31;;;;;;;3.72;1.95;;;;;;;7.58;100.00;102109.88;5040474;28;20195;-50
2022/10/20 08:03:57;;;;;;;3.33;1.88;;;;;;;7.58;100.00;102106.31;5036707;28;20216;-50
2022/10/20 08:06:23;;;;;;;3.00;1.77;;;;;;;7.70;100.00;102105.38;5038939;28;20186;-52
2022/10/20 08:08:48;;;;;;;3.08;2.00;;;;;;;7.94;100.00;102101.69;5043765;28;20261;-50
2022/10/20 08:11:14;;;;;;;4.10;1.88;;;;;;;8.03;100.00;102086.47;5037505;28;20219;-51
2022/10/20 08:13:40;;;;;;;2.78;1.88;;;;;;;8.03;100.00;102072.25;5036251;28;20241;-49
2022/10/20 08:16:10;;;;;;;3.92;1.95;;;;;;;8.12;100.00;102069.50;5036845;28;20290;-50
2022/10/20 08:18:36;;;;;;;5.93;1.60;;;;;;;8.33;100.00;102064.88;5040709;28;20702;-49
2022/10/20 08:21:21;;;;;;;4.03;1.98;;;;;;;8.38;100.00;102063.06;5041998;28;20203;-49
2022/10/20 08:23:48;;;;;;;3.15;1.92;;;;;;;8.65;100.00;102053.91;5031402;28;20227;-48
2022/10/20 08:26:20;;;;;;;2.35;1.70;;;;;;;8.73;100.00;102045.81;5034776;28;20196;-48
2022/10/20 08:28:46;;;;;;;1.90;1.73;;;;;;;8.64;100.00;102038.78;5035530;28;20253;-50
2022/10/20 08:31:12;;;;;;;3.53;1.90;;;;;;;8.64;100.00;102031.66;5035187;28;20527;-49
2022/10/20 08:33:39;;;;;;;2.88;1.63;;;;;;;8.91;100.00;102040.25;5032873;28;20298;-48
2022/10/20 08:36:11;;;;;;;3.20;1.50;;;;;;;8.96;100.00;102025.03;5033439;28;20213;-50
2022/10/20 08:38:37;;;;;;;1.80;1.42;;;;;;;8.79;99.55;102024.34;5032667;28;20646;-50
2022/10/20 08:41:05;;;;;;;2.78;1.40;;;;;;;8.92;99.60;102019.75;5035221;28;20213;-50
2022/10/20 08:43:35;;;;;;;3.40;1.50;;;;;;;8.94;99.13;102020.63;5036120;28;20297;-49
2022/10/20 08:46:01;;;;;;;5.90;1.98;;;;;;;9.00;98.50;102010.72;5034784;28;20548;-49
2022/10/20 08:48:31;;;;;;;4.28;1.45;;;;;;;9.20;98.13;102017.59;5036187;28;20175;-50
2022/10/20 08:50:57;;;;;;;2.28;1.30;;;;;;;9.05;97.74;102016.00;5034275;28;20188;-50
2022/10/20 08:53:24;;;;;;;3.92;1.38;;;;;;;9.19;97.49;102023.88;5042071;28;20206;-50
2022/10/20 08:55:50;;;;;;;4.20;1.33;;;;;;;9.05;97.00;102011.56;5041869;28;20216;-49
2022/10/20 08:58:20;;;;;;;3.17;1.58;;;;;;;9.16;96.95;102000.75;5037328;28;20203;-50
2022/10/20 09:00:47;;;;;;;2.30;1.13;;;;;;;9.23;96.54;102001.53;5043121;28;20207;-49
2022/10/20 09:03:22;;;;;;;8.18;1.52;;;;;;;9.21;96.03;101993.53;5039916;28;20270;-49
2022/10/20 09:05:55;;;;;;;3.17;1.27;;;;;;;9.34;95.50;101985.34;5038280;28;20677;-50
2022/10/20 09:08:24;;;;;;;4.32;1.33;;;;;;;9.27;95.29;101969.38;5033380;28;20289;-48
2022/10/20 09:10:52;;;;;;;3.45;1.15;;;;;;;9.46;95.09;101967.28;5033381;28;20651;-51
2022/10/20 09:13:30;;;;;;;3.70;1.20;;;;;;;9.52;94.40;101968.13;5033517;28;20579;-50
2022/10/20 09:16:11;;;;;;;2.15;1.33;;;;;;;9.53;93.71;101959.19;5023515;28;20191;-49
2022/10/20 09:18:37;;;;;;;1.75;1.30;;;;;;;9.70;93.41;101952.66;5037672;28;20533;-49
2022/10/20 09:21:07;;;;;;;2.80;1.30;;;;;;;9.72;93.40;101952.63;5031071;28;20207;-52
2022/10/20 09:23:41;;;;;;;3.10;1.40;;;;;;;9.81;93.45;101952.47;5033494;28;20208;-50
2022/10/20 09:26:15;;;;;;;4.40;1.27;;;;;;;9.96;92.74;101943.28;5037010;28;20194;-51
2022/10/20 09:28:41;;;;;;;1.38;1.08;;;;;;;9.89;92.03;101961.25;5035447;28;20193;-50
2022/10/20 09:31:31;;;;;;;2.45;1.38;;;;;;;10.01;91.21;101945.88;5031668;28;20180;-49
2022/10/20 09:33:57;;;;;;;0.93;0.90;;;;;;;10.00;90.88;101941.47;5037108;28;20433;-50
2022/10/20 09:36:30;;;;;;;1.48;1.20;;;;;;;9.96;90.22;101931.72;5039408;28;20186;-51
2022/10/20 09:38:56;;;;;;;2.28;1.00;;;;;;;9.98;89.92;101930.75;5041295;28;20239;-50
2022/10/20 09:41:29;;;;;;;1.00;0.90;;;;;;;10.25;89.33;101932.03;5034045;28;20269;-50
2022/10/20 09:43:58;;;;;;;3.55;1.42;;;;;;;10.05;88.78;101945.78;5039904;28;20610;-50
2022/10/20 09:46:31;;;;;;;1.50;0.93;;;;;;;10.10;88.82;101938.59;5034468;28;20286;-51
2022/10/20 09:48:57;;;;;;;5.20;1.13;;;;;;;10.19;88.30;101934.84;5030742;28;20212;-50
2022/10/20 09:51:26;;;;;;;3.38;0.90;;;;;;;10.31;87.66;101928.41;5033526;28;20286;-51
2022/10/20 09:53:57;;;;;;;3.63;1.10;;;;;;;10.21;87.18;101914.28;5031583;28;20214;-50
2022/10/20 09:56:32;;;;;;;1.65;1.00;;;;;;;10.45;87.23;101899.53;5039137;28;20219;-49
2022/10/20 09:59:00;;;;;;;1.80;1.15;;;;;;;10.46;86.90;101903.97;5032531;28;20206;-51
2022/10/20 10:01:26;;;;;;;1.73;1.30;;;;;;;10.49;86.51;101903.03;5030022;28;20669;-50
2022/10/20 10:03:58;;;;;;;3.25;1.02;;;;;;;10.54;86.01;101902.94;5022821;28;20222;-50
2022/10/20 10:06:36;;;;;;;2.20;1.00;;;;;;;10.67;85.48;101891.03;5026101;28;20261;-50
2022/10/20 10:09:20;;;;;;;1.95;1.00;;;;;;;10.71;85.15;101892.72;5036607;28;20175;-49
2022/10/20 10:11:57;;;;;;;1.77;0.93;;;;;;;10.87;84.32;101886.13;5038055;28;20187;-49
2022/10/20 10:14:22;;;;;;;2.78;1.60;;;;;;;10.99;84.02;101876.91;5035075;28;20211;-50
2022/10/20 10:16:48;;;;;;;3.35;1.10;;;;;;;10.94;83.22;101876.16;5031073;28;20180;-49
2022/10/20 10:19:19;;;;;;;2.28;1.10;;;;;;;11.04;82.72;101877.72;5031955;28;20654;-50
2022/10/20 10:21:55;;;;;;;4.20;1.33;;;;;;;11.03;82.53;101883.09;5022944;28;20194;-49
2022/10/20 10:24:24;;;;;;;2.10;1.10;;;;;;;10.95;81.87;101877.03;5037800;28;20211;-49
2022/10/20 10:26:54;;;;;;;3.80;1.30;;;;;;;10.73;81.84;101882.88;5042395;28;20602;-48
2022/10/20 10:29:24;;;;;;;2.13;1.23;;;;;;;10.90;82.19;101875.31;5043307;28;20282;-50
2022/10/20 10:32:15;;;;;;;4.45;1.23;;;;;;;10.90;82.38;101869.09;5036529;28;20193;-49
2022/10/20 10:34:59;;;;;;;2.17;1.30;;;;;;;10.63;82.22;101858.06;5034811;28;20239;-50
2022/10/20 10:37:27;;;;;;;1.58;1.35;;;;;;;10.54;82.34;101869.00;5033633;28;20215;-48
2022/10/20 10:39:52;;;;;;;2.75;1.20;;;;;;;10.60;82.28;101868.84;5031866;28;20202;-50
2022/10/20 10:42:36;;;;;;;1.77;1.10;;;;;;;10.74;82.94;101881.09;5037100;28;20188;-49
2022/10/20 10:45:24;;;;;;;2.38;1.10;;;;;;;10.70;82.71;101865.06;5046640;28;20191;-49
2022/10/20 10:47:55;;;;;;;1.42;1.00;;;;;;;11.19;82.17;101843.38;5039945;28;20859;-50
2022/10/20 10:50:43;;;;;;;3.38;1.10;;;;;;;11.39;81.62;101834.81;5035110;28;20184;-50
2022/10/20 10:53:14;;;;;;;3.45;1.30;;;;;;;11.30;80.95;101828.78;5037439;28;20221;-49
2022/10/20 10:55:50;;;;;;;1.98;1.10;;;;;;;11.62;80.48;101812.78;5030924;28;20208;-50
2022/10/20 10:58:35;;;;;;;5.72;1.60;;;;;;;11.74;80.38;101799.91;5028052;28;20229;-50
2022/10/20 11:01:33;;;;;;;2.15;1.08;;;;;;;11.80;79.94;101801.50;5035219;28;20290;-49
2022/10/20 11:04:25;;;;;;;3.17;1.20;;;;;;;11.81;79.80;101797.91;5037394;28;20223;-50
2022/10/20 11:07:07;;;;;;;2.38;1.58;;;;;;;11.62;79.99;101802.91;5034847;28;20348;-51
2022/10/20 11:10:01;;;;;;;1.80;1.15;;;;;;;11.66;80.25;101777.75;5032327;28;20615;-49
2022/10/20 11:12:45;;;;;;;2.90;1.23;;;;;;;11.59;79.26;101781.53;5030633;28;20194;-50
2022/10/20 11:15:38;;;;;;;2.65;1.38;;;;;;;11.62;79.08;101785.94;5029620;28;20511;-47
2022/10/20 11:18:03;;;;;;;3.75;1.17;;;;;;;11.50;79.53;101766.56;5032389;28;20314;-47
2022/10/20 11:21:01;;;;;;;3.47;1.55;;;;;;;11.39;79.92;101771.34;5033257;28;20778;-47
2022/10/20 11:24:04;;;;;;;2.53;0.90;;;;;;;11.47;80.59;101753.19;5012743;28;20223;-48
2022/10/20 11:26:34;;;;;;;2.55;1.30;;;;;;;11.49;80.32;101751.34;5038664;28;20654;-48
2022/10/20 11:29:03;;;;;;;3.42;1.35;;;;;;;11.54;80.60;101745.84;5045910;28;20226;-48
2022/10/20 11:31:53;;;;;;;2.20;1.23;;;;;;;11.66;80.74;101734.78;5037903;28;20204;-48
2022/10/20 11:34:40;;;;;;;3.13;1.00;;;;;;;11.64;79.68;101741.13;5036925;28;20230;-48